Time;durP1;ratioP1;P1;durP2;ratioP2;P2;SDS_P1;SDS_P2;PMS_P1;PMS_P2;Temp;Humidity;BMP_temperature;BMP_pressure;BME280_temperature;BME280_humidity;BME280_pressure;Samples;Min_cycle;Max_cycle;Signal;HPM_P1;HPM_P2
2022/05/07 00:00:38;;;;;;;18.00;12.50;;;;;;;13.37;100.00;102218.75;6402487;23;20005;-70
2022/05/07 00:03:09;;;;;;;14.00;11.87;;;;;;;13.38;100.00;102230.94;6403637;23;20009;-69
2022/05/07 00:05:41;;;;;;;13.25;10.50;;;;;;;13.34;100.00;102221.59;6402338;23;20455;-69
2022/05/07 00:08:12;;;;;;;14.07;11.68;;;;;;;13.28;100.00;102222.03;6404184;23;20014;-70
2022/05/07 00:10:44;;;;;;;14.48;11.25;;;;;;;13.29;100.00;102218.44;6403737;23;20036;-69
2022/05/07 00:13:15;;;;;;;17.15;11.65;;;;;;;13.19;100.00;102212.19;6403294;23;20406;-68
2022/05/07 00:18:36;;;;;;;13.70;10.52;;;;;;;13.23;100.00;102211.03;6403305;23;20449;-69
2022/05/07 00:21:08;;;;;;;13.45;11.20;;;;;;;13.19;100.00;102212.19;6400829;23;20029;-69
2022/05/07 00:23:39;;;;;;;14.07;11.93;;;;;;;13.14;100.00;102201.13;6402973;23;20065;-69
2022/05/07 00:26:10;;;;;;;14.48;11.75;;;;;;;13.18;100.00;102213.09;6403842;23;20056;-69
2022/05/07 00:28:42;;;;;;;12.23;10.65;;;;;;;13.14;100.00;102214.28;6403716;23;20009;-68
2022/05/07 00:31:13;;;;;;;13.63;11.48;;;;;;;13.11;100.00;102220.63;6402639;23;20032;-69
2022/05/07 00:33:44;;;;;;;12.70;11.23;;;;;;;13.07;100.00;102206.03;6403041;23;20043;-69
2022/05/07 00:36:15;;;;;;;14.57;11.25;;;;;;;13.05;100.00;102207.91;6401865;23;20080;-68
2022/05/07 00:38:47;;;;;;;12.57;11.27;;;;;;;13.03;100.00;102203.72;6404321;23;20016;-68
2022/05/07 00:41:18;;;;;;;15.93;10.80;;;;;;;12.93;100.00;102198.31;6377469;23;20085;-68
2022/05/07 00:43:49;;;;;;;12.68;10.80;;;;;;;12.98;100.00;102206.69;6403624;23;20005;-68
2022/05/07 00:46:24;;;;;;;12.98;10.68;;;;;;;13.04;100.00;102203.63;6403075;23;20118;-69
2022/05/07 00:48:57;;;;;;;11.98;10.73;;;;;;;12.99;100.00;102199.63;6403173;23;20097;-69
2022/05/07 00:51:34;;;;;;;13.13;11.73;;;;;;;12.97;100.00;102191.84;6401873;23;20021;-69
2022/05/07 00:54:08;;;;;;;13.80;10.38;;;;;;;13.03;100.00;102199.31;6402955;23;20315;-69
2022/05/07 00:56:40;;;;;;;11.77;10.48;;;;;;;12.96;100.00;102192.81;6402954;23;20073;-69
2022/05/07 00:59:11;;;;;;;13.27;10.93;;;;;;;12.94;100.00;102194.72;6401233;23;20428;-69
2022/05/07 01:01:42;;;;;;;12.73;11.40;;;;;;;12.94;100.00;102199.13;6403858;23;19997;-69
2022/05/07 01:04:14;;;;;;;13.93;11.05;;;;;;;12.92;100.00;102199.25;6402168;23;20010;-69
2022/05/07 01:06:45;;;;;;;11.32;10.20;;;;;;;12.90;100.00;102199.34;6401872;23;20001;-69
2022/05/07 01:09:16;;;;;;;13.45;11.48;;;;;;;12.84;100.00;102189.31;6402594;23;20408;-69
2022/05/07 01:11:50;;;;;;;12.80;11.50;;;;;;;12.88;100.00;102200.44;6403224;23;20005;-69
2022/05/07 01:14:21;;;;;;;;;;;;;;;13.46;100.00;102192.66;6403927;23;20080;-69
2022/05/07 01:16:52;;;;;;;12.98;11.50;;;;;;;12.97;100.00;102178.72;6403091;23;19932;-69
2022/05/07 01:19:23;;;;;;;14.25;11.23;;;;;;;12.86;100.00;102182.13;6403231;23;20001;-67
2022/05/07 01:21:55;;;;;;;11.90;10.80;;;;;;;12.88;100.00;102185.50;6397935;23;20015;-69
2022/05/07 01:24:26;;;;;;;12.93;11.50;;;;;;;12.86;100.00;102171.59;6401982;23;20010;-69
2022/05/07 01:26:57;;;;;;;16.23;10.85;;;;;;;12.83;100.00;102182.34;6377193;23;20010;-69
2022/05/07 01:29:28;;;;;;;13.50;11.15;;;;;;;12.81;100.00;102179.00;6402381;23;20009;-69
2022/05/07 01:32:00;;;;;;;13.38;11.65;;;;;;;12.83;100.00;102174.44;6402990;23;20009;-67
2022/05/07 01:34:32;;;;;;;14.35;12.85;;;;;;;12.79;100.00;102175.63;6377091;23;20013;-69
2022/05/07 01:37:03;;;;;;;14.82;13.32;;;;;;;12.81;100.00;102168.47;6402113;23;20001;-69
2022/05/07 01:39:34;;;;;;;14.90;13.40;;;;;;;12.82;100.00;102171.94;6402216;23;20333;-69
2022/05/07 01:42:06;;;;;;;16.52;13.82;;;;;;;12.79;100.00;102170.38;6403870;23;20009;-69
2022/05/07 01:44:37;;;;;;;15.20;13.43;;;;;;;12.81;100.00;102176.38;6403179;23;20060;-69
2022/05/07 01:49:58;;;;;;;13.90;12.23;;;;;;;12.74;100.00;102169.88;6403710;23;20092;-69
2022/05/07 01:52:29;;;;;;;12.75;11.55;;;;;;;12.68;100.00;102164.22;6401974;23;20045;-69
2022/05/07 01:55:01;;;;;;;14.32;12.90;;;;;;;12.78;100.00;102173.13;6402797;23;20010;-69
2022/05/07 01:57:32;;;;;;;15.00;12.77;;;;;;;12.67;100.00;102171.25;6402405;23;20006;-69
2022/05/07 02:00:04;;;;;;;16.25;13.02;;;;;;;12.64;100.00;102172.31;6402023;23;20429;-69
2022/05/07 02:02:35;;;;;;;14.07;12.57;;;;;;;12.61;100.00;102166.44;6402049;23;20392;-68
2022/05/07 02:05:07;;;;;;;14.00;12.55;;;;;;;12.63;100.00;102159.28;6401111;23;20353;-68
2022/05/07 02:07:38;;;;;;;13.75;12.32;;;;;;;12.58;100.00;102162.25;6400863;23;20016;-69
2022/05/07 02:10:09;;;;;;;15.35;13.10;;;;;;;12.58;100.00;102150.91;6403021;23;20017;-71
2022/05/07 02:12:40;;;;;;;16.42;13.77;;;;;;;12.62;100.00;102160.25;6402609;23;20013;-68
2022/05/07 02:15:12;;;;;;;14.65;13.15;;;;;;;12.63;100.00;102154.03;6402894;23;20009;-68
2022/05/07 02:17:43;;;;;;;15.20;12.82;;;;;;;12.60;100.00;102159.50;6404892;23;20001;-68
2022/05/07 02:20:15;;;;;;;13.77;12.38;;;;;;;12.62;100.00;102163.72;6404561;23;20133;-68
2022/05/07 02:22:46;;;;;;;14.38;11.90;;;;;;;12.60;100.00;102149.00;6402413;23;20087;-68
2022/05/07 02:25:18;;;;;;;13.80;12.40;;;;;;;12.60;100.00;102162.97;6404578;23;20416;-68
2022/05/07 02:27:49;;;;;;;14.27;12.77;;;;;;;12.51;100.00;102145.25;6404929;23;20009;-68
2022/05/07 02:30:21;;;;;;;15.98;12.18;;;;;;;12.52;100.00;102141.66;6404165;23;20013;-68
2022/05/07 02:32:52;;;;;;;13.77;12.38;;;;;;;12.53;100.00;102153.84;6404432;23;20005;-68
2022/05/07 02:35:24;;;;;;;14.77;11.98;;;;;;;12.56;100.00;102151.00;6403818;23;20009;-68
2022/05/07 02:37:55;;;;;;;13.85;12.43;;;;;;;12.50;100.00;102142.72;6403647;23;20371;-68
2022/05/07 02:40:27;;;;;;;13.95;12.43;;;;;;;12.55;100.00;102148.50;6405001;23;20425;-68
2022/05/07 02:42:58;;;;;;;16.17;13.50;;;;;;;12.52;100.00;102146.91;6404715;23;20009;-69
2022/05/07 02:45:30;;;;;;;15.63;14.07;;;;;;;12.58;100.00;102135.13;6404024;23;20051;-69
2022/05/07 02:48:01;;;;;;;17.85;14.57;;;;;;;12.58;100.00;102137.78;6404190;23;20468;-69
2022/05/07 02:50:32;;;;;;;16.48;14.77;;;;;;;12.60;100.00;102139.31;6403312;23;20017;-68
2022/05/07 02:53:04;;;;;;;14.95;13.45;;;;;;;12.59;100.00;102135.00;6404409;23;20032;-69
2022/05/07 02:55:35;;;;;;;16.13;14.45;;;;;;;12.62;100.00;102134.78;6404114;23;20011;-69
2022/05/07 02:58:07;;;;;;;15.55;13.93;;;;;;;12.66;100.00;102143.31;6404702;23;20651;-69
2022/05/07 03:00:39;;;;;;;16.70;15.00;;;;;;;12.67;100.00;102137.09;6404963;23;20349;-69
2022/05/07 03:03:10;;;;;;;16.95;15.25;;;;;;;12.65;100.00;102136.34;6403957;23;20006;-69
2022/05/07 03:05:42;;;;;;;17.02;14.90;;;;;;;12.70;100.00;102136.88;6402860;23;20691;-69
2022/05/07 03:08:13;;;;;;;15.60;14.10;;;;;;;12.71;100.00;102143.78;6403888;23;20010;-69
2022/05/07 03:10:44;;;;;;;16.17;14.57;;;;;;;12.68;100.00;102141.38;6404689;23;20005;-69
2022/05/07 03:13:15;;;;;;;18.90;15.32;;;;;;;12.64;100.00;102121.53;6403797;23;20001;-69
2022/05/07 03:15:47;;;;;;;16.30;14.60;;;;;;;12.63;100.00;102123.31;6404496;23;20413;-69
2022/05/07 03:18:18;;;;;;;20.45;15.48;;;;;;;12.68;100.00;102132.66;6404338;23;20392;-68
2022/05/07 03:20:50;;;;;;;16.60;14.90;;;;;;;12.66;100.00;102138.03;6401490;23;20519;-68
2022/05/07 03:23:21;;;;;;;15.30;13.70;;;;;;;12.60;100.00;102131.44;6404119;23;20010;-68
2022/05/07 03:25:53;;;;;;;15.05;13.60;;;;;;;12.53;100.00;102124.09;6404028;23;20032;-69
2022/05/07 03:28:24;;;;;;;16.00;14.30;;;;;;;12.54;100.00;102134.53;6404263;23;20033;-69
2022/05/07 03:30:55;;;;;;;16.35;14.20;;;;;;;12.58;100.00;102137.78;6403747;23;20084;-68
2022/05/07 03:33:26;;;;;;;15.40;13.80;;;;;;;12.54;100.00;102133.66;6401655;23;20009;-69
2022/05/07 03:35:58;;;;;;;15.48;13.90;;;;;;;12.53;100.00;102140.69;6402688;23;20076;-69
2022/05/07 03:38:29;;;;;;;15.60;13.93;;;;;;;12.53;100.00;102134.63;6403737;23;20425;-68
2022/05/07 03:41:03;;;;;;;16.50;14.70;;;;;;;12.54;100.00;102141.53;6404554;23;20001;-69
2022/05/07 03:43:36;;;;;;;15.65;13.98;;;;;;;12.51;100.00;102133.91;6403592;23;20080;-68
2022/05/07 03:46:11;;;;;;;16.90;15.10;;;;;;;12.49;100.00;102144.50;6404177;23;20124;-68
2022/05/07 03:48:42;;;;;;;16.00;14.30;;;;;;;12.49;100.00;102146.31;6403918;23;20008;-68
2022/05/07 03:51:14;;;;;;;16.92;15.23;;;;;;;12.46;100.00;102147.34;6400027;23;20349;-68
2022/05/07 03:53:45;;;;;;;16.95;15.13;;;;;;;12.44;100.00;102145.81;6403685;23;20056;-69
2022/05/07 03:56:16;;;;;;;20.17;17.08;;;;;;;12.41;100.00;102144.22;6403368;23;20037;-69
2022/05/07 03:58:48;;;;;;;18.55;16.65;;;;;;;12.36;100.00;102144.56;6404289;23;20021;-68
2022/05/07 04:01:19;;;;;;;19.02;16.35;;;;;;;12.35;100.00;102150.78;6401691;23;20009;-69
2022/05/07 04:03:50;;;;;;;18.75;15.90;;;;;;;12.43;100.00;102155.47;6403840;23;20006;-68
2022/05/07 04:06:21;;;;;;;19.15;16.65;;;;;;;12.35;100.00;102156.03;6401183;23;20084;-69
2022/05/07 04:08:53;;;;;;;19.77;17.63;;;;;;;12.32;100.00;102158.88;6402242;23;20066;-68
2022/05/07 04:11:24;;;;;;;20.98;18.52;;;;;;;12.34;100.00;102161.38;6403999;23;20006;-69
2022/05/07 04:13:55;;;;;;;20.65;18.55;;;;;;;12.32;100.00;102161.50;6403701;23;20459;-69
2022/05/07 04:16:27;;;;;;;20.27;17.67;;;;;;;12.32;100.00;102156.25;6402759;23;20005;-68
2022/05/07 04:18:58;;;;;;;20.33;18.17;;;;;;;12.35;100.00;102166.53;6403608;23;20005;-68
2022/05/07 04:21:29;;;;;;;20.85;18.63;;;;;;;12.38;100.00;102157.56;6401362;23;20009;-69
2022/05/07 04:24:01;;;;;;;21.02;18.77;;;;;;;12.39;100.00;102154.88;6402521;23;20080;-68
2022/05/07 04:26:32;;;;;;;20.10;18.20;;;;;;;12.43;100.00;102167.78;6403081;23;20012;-69
2022/05/07 04:29:03;;;;;;;21.65;19.35;;;;;;;12.43;100.00;102165.16;6403658;23;20168;-68
2022/05/07 04:31:34;;;;;;;22.10;18.50;;;;;;;12.47;100.00;102166.63;6403821;23;20037;-69
2022/05/07 04:34:06;;;;;;;21.85;18.52;;;;;;;12.51;100.00;102168.91;6403179;23;20005;-68
2022/05/07 04:36:37;;;;;;;21.40;19.08;;;;;;;12.52;100.00;102156.59;6402431;23;20036;-67
2022/05/07 04:39:08;;;;;;;21.25;18.77;;;;;;;12.55;100.00;102166.91;6403647;23;19997;-68
2022/05/07 04:41:40;;;;;;;21.13;18.92;;;;;;;12.61;100.00;102159.41;6402587;23;20017;-68
2022/05/07 04:44:12;;;;;;;24.30;20.08;;;;;;;12.63;100.00;102169.81;6403069;23;20008;-68
2022/05/07 04:46:43;;;;;;;21.65;19.40;;;;;;;12.65;100.00;102173.16;6404018;23;20029;-69
2022/05/07 04:49:18;;;;;;;21.67;19.48;;;;;;;12.66;100.00;102166.97;6404868;23;20045;-72
2022/05/07 04:51:50;;;;;;;22.92;19.23;;;;;;;12.69;100.00;102176.41;6426883;23;20080;-72
2022/05/07 04:54:22;;;;;;;22.30;19.98;;;;;;;12.77;100.00;102172.28;6432134;23;20250;-70
2022/05/07 04:56:53;;;;;;;21.90;19.52;;;;;;;12.75;100.00;102178.59;6434151;23;20351;-71
2022/05/07 04:59:25;;;;;;;23.65;19.90;;;;;;;12.76;100.00;102175.00;6435450;23;20067;-71
2022/05/07 05:01:56;;;;;;;22.15;19.85;;;;;;;12.79;100.00;102178.25;6434755;23;20009;-70
2022/05/07 05:04:27;;;;;;;22.33;19.80;;;;;;;12.83;100.00;102176.25;6434808;23;20009;-70
2022/05/07 05:06:59;;;;;;;23.40;19.75;;;;;;;12.87;100.00;102185.59;6433415;23;20432;-73
2022/05/07 05:09:30;;;;;;;23.45;20.67;;;;;;;12.90;100.00;102188.00;6435031;23;20055;-71
2022/05/07 05:12:01;;;;;;;22.98;20.25;;;;;;;12.95;100.00;102191.13;6435048;23;20325;-70
2022/05/07 05:15:06;;;;;;;23.60;21.05;;;;;;;12.98;100.00;102190.06;6434593;23;20015;-71
2022/05/07 05:17:34;;;;;;;23.52;21.13;;;;;;;13.06;100.00;102198.22;6427098;23;20091;-71
2022/05/07 05:20:06;;;;;;;25.58;22.98;;;;;;;13.01;100.00;102198.56;6434335;23;20012;-71
2022/05/07 05:22:37;;;;;;;25.77;22.95;;;;;;;13.04;100.00;102208.88;6432630;23;20008;-71
2022/05/07 05:25:09;;;;;;;26.73;23.95;;;;;;;13.05;100.00;102212.34;6434656;23;20080;-70
2022/05/07 05:27:40;;;;;;;26.00;23.20;;;;;;;13.10;100.00;102220.72;6435108;23;20011;-70
2022/05/07 05:30:12;;;;;;;26.90;24.13;;;;;;;13.11;100.00;102219.78;6408061;23;20397;-71
2022/05/07 05:32:43;;;;;;;26.70;24.08;;;;;;;13.12;100.00;102224.94;6435244;23;20032;-71
2022/05/07 05:35:14;;;;;;;29.15;25.13;;;;;;;13.16;100.00;102220.28;6435244;23;20439;-70
2022/05/07 05:37:46;;;;;;;27.55;24.70;;;;;;;13.18;100.00;102220.16;6434207;23;20443;-70
2022/05/07 05:40:17;;;;;;;30.33;24.63;;;;;;;13.22;100.00;102218.97;6433727;23;20008;-71
2022/05/07 05:42:48;;;;;;;26.90;24.10;;;;;;;13.25;100.00;102216.16;6432678;23;20051;-70
2022/05/07 05:45:20;;;;;;;27.00;24.17;;;;;;;13.32;100.00;102226.13;6432733;23;20372;-71
2022/05/07 05:47:51;;;;;;;27.30;24.50;;;;;;;13.40;100.00;102222.91;6433172;23;20009;-70
2022/05/07 05:50:22;;;;;;;27.75;24.83;;;;;;;13.48;100.00;102230.22;6432482;23;20024;-72
2022/05/07 05:52:54;;;;;;;29.95;24.67;;;;;;;13.57;100.00;102221.66;6434744;23;20290;-70
2022/05/07 05:55:25;;;;;;;28.55;25.55;;;;;;;13.63;100.00;102222.00;6437049;23;20047;-70
2022/05/07 05:57:57;;;;;;;28.83;25.73;;;;;;;13.66;100.00;102222.75;6410343;23;20008;-70
2022/05/07 06:00:28;;;;;;;33.20;25.35;;;;;;;13.76;100.00;102223.75;6435934;23;20011;-70
2022/05/07 06:02:59;;;;;;;29.85;25.05;;;;;;;13.82;100.00;102224.09;6431093;23;20079;-70
2022/05/07 06:05:30;;;;;;;26.30;23.27;;;;;;;13.94;100.00;102226.72;6434601;23;20005;-72
2022/05/07 06:08:02;;;;;;;31.38;25.80;;;;;;;14.01;100.00;102225.31;6436410;23;20076;-71
2022/05/07 06:10:33;;;;;;;27.02;24.00;;;;;;;14.11;100.00;102215.75;6436281;23;20013;-71
2022/05/07 06:13:04;;;;;;;29.63;24.38;;;;;;;14.22;100.00;102226.28;6431642;23;20040;-70
2022/05/07 06:15:38;;;;;;;26.90;22.75;;;;;;;14.33;100.00;102225.44;6433327;23;20084;-70
2022/05/07 06:18:09;;;;;;;27.75;22.70;;;;;;;14.41;100.00;102227.47;6409873;23;20028;-72
2022/05/07 06:20:40;;;;;;;27.50;21.25;;;;;;;14.56;100.00;102231.56;6433760;23;20012;-70
2022/05/07 06:23:11;;;;;;;25.13;22.42;;;;;;;14.69;100.00;102229.59;6435076;23;20005;-72
2022/05/07 06:28:33;;;;;;;25.05;21.33;;;;;;;14.88;100.00;102228.13;6434750;23;20103;-71
2022/05/07 06:31:04;;;;;;;29.55;23.00;;;;;;;14.96;100.00;102236.25;6434555;23;20036;-72
2022/05/07 06:33:38;;;;;;;28.17;22.23;;;;;;;15.07;100.00;102233.59;6434370;23;20340;-72
2022/05/07 06:36:10;;;;;;;24.48;20.13;;;;;;;15.08;99.37;102236.13;6432965;23;20181;-71
2022/05/07 06:38:41;;;;;;;27.38;20.55;;;;;;;15.17;99.30;102234.50;6409104;23;20011;-71
2022/05/07 06:41:12;;;;;;;25.48;21.05;;;;;;;15.24;97.98;102232.22;6436561;23;20155;-71
2022/05/07 06:43:44;;;;;;;23.48;20.85;;;;;;;15.42;97.57;102235.97;6435973;23;20376;-71
2022/05/07 06:46:15;;;;;;;21.90;19.58;;;;;;;15.46;95.40;102233.91;6436083;23;20014;-71
2022/05/07 06:48:46;;;;;;;25.45;20.63;;;;;;;15.55;95.37;102239.25;6435609;23;20008;-73
2022/05/07 06:51:18;;;;;;;24.15;21.55;;;;;;;15.62;94.13;102241.41;6434147;23;20084;-71
2022/05/07 06:53:49;;;;;;;24.23;20.42;;;;;;;15.74;96.09;102241.22;6435458;23;20009;-71
2022/05/07 06:56:21;;;;;;;27.00;19.45;;;;;;;15.81;93.46;102230.97;6436390;23;20001;-72
2022/05/07 06:58:52;;;;;;;24.15;19.65;;;;;;;15.90;91.47;102237.28;6435399;23;20068;-71
2022/05/07 07:01:24;;;;;;;22.02;18.85;;;;;;;15.91;89.79;102239.81;6409488;23;20017;-71
2022/05/07 07:03:55;;;;;;;21.25;18.92;;;;;;;16.01;90.63;102240.66;6434918;23;20031;-71
2022/05/07 07:06:27;;;;;;;23.02;19.58;;;;;;;16.12;88.56;102242.41;6408338;23;20044;-71
2022/05/07 07:08:58;;;;;;;24.67;19.17;;;;;;;16.26;86.98;102241.22;6434390;23;20001;-71
2022/05/07 07:11:30;;;;;;;23.85;19.20;;;;;;;16.33;85.96;102245.00;6436253;23;20005;-71
2022/05/07 07:14:02;;;;;;;24.00;18.95;;;;;;;16.46;84.33;102242.13;6434105;23;20032;-71
2022/05/07 07:16:34;;;;;;;28.35;20.48;;;;;;;16.52;84.07;102239.78;6435732;23;20032;-71
2022/05/07 07:19:05;;;;;;;21.73;17.73;;;;;;;16.67;84.16;102242.88;6436126;23;20012;-72
2022/05/07 07:21:36;;;;;;;23.45;18.52;;;;;;;16.81;83.80;102231.06;6431825;23;20048;-71
2022/05/07 07:24:08;;;;;;;26.65;18.27;;;;;;;16.91;81.69;102236.41;6435960;23;20001;-72
2022/05/07 07:26:39;;;;;;;25.48;19.88;;;;;;;17.04;83.35;102231.66;6435525;23;20015;-71
2022/05/07 07:29:11;;;;;;;23.85;19.10;;;;;;;17.14;81.00;102237.81;6435159;23;20051;-73
2022/05/07 07:31:42;;;;;;;23.42;19.77;;;;;;;17.16;78.60;102233.22;6435675;23;20013;-71
2022/05/07 07:34:13;;;;;;;22.80;19.33;;;;;;;17.24;78.60;102233.34;6435166;23;20318;-71
2022/05/07 07:36:44;;;;;;;21.63;18.75;;;;;;;17.45;78.78;102235.84;6434715;23;20026;-72
2022/05/07 07:39:16;;;;;;;24.10;18.67;;;;;;;17.62;79.41;102233.47;6435737;23;20432;-73
2022/05/07 07:41:48;;;;;;;21.43;17.40;;;;;;;17.73;76.10;102228.81;6435697;23;20072;-71
2022/05/07 07:44:19;;;;;;;29.85;18.15;;;;;;;17.81;73.97;102230.78;6435618;23;20055;-72
2022/05/07 07:49:41;;;;;;;23.60;19.02;;;;;;;18.08;73.36;102229.16;6435326;23;20045;-71
2022/05/07 07:52:13;;;;;;;23.33;18.98;;;;;;;18.30;73.08;102242.06;6434885;23;20015;-71
2022/05/07 07:54:44;;;;;;;20.92;18.27;;;;;;;18.47;70.56;102241.25;6434849;23;20076;-72
2022/05/07 07:57:15;;;;;;;21.35;18.13;;;;;;;18.52;71.42;102239.97;6433348;23;20009;-73
2022/05/07 07:59:46;;;;;;;20.63;18.23;;;;;;;18.62;70.62;102243.44;6432747;23;20028;-72
2022/05/07 08:02:18;;;;;;;24.58;17.55;;;;;;;18.63;68.44;102234.47;6432872;23;20005;-72
2022/05/07 08:04:53;;;;;;;18.85;16.23;;;;;;;18.77;67.48;102233.16;6433422;23;20008;-71
2022/05/07 08:13:08;;;;;;;19.65;16.27;;;;;;;19.15;65.13;102237.34;6436122;23;20013;-72
2022/05/07 08:15:39;;;;;;;24.58;17.45;;;;;;;19.17;66.18;102224.78;6409605;23;20005;-75
2022/05/07 08:18:12;;;;;;;24.13;16.37;;;;;;;19.32;64.80;102235.66;6409212;23;20244;-73
2022/05/07 08:20:43;;;;;;;21.52;16.48;;;;;;;19.25;63.36;102230.16;6432682;23;20001;-71
2022/05/07 08:23:15;;;;;;;26.07;16.43;;;;;;;19.31;61.29;102226.03;6435222;23;20016;-71
2022/05/07 08:25:48;;;;;;;18.57;15.53;;;;;;;19.28;62.75;102229.84;6435536;23;20012;-72
2022/05/07 08:28:20;;;;;;;21.83;16.60;;;;;;;19.32;61.02;102236.53;6436448;23;20004;-71
2022/05/07 08:30:53;;;;;;;20.77;16.30;;;;;;;19.36;62.70;102237.03;6435411;23;20081;-71
2022/05/07 08:33:25;;;;;;;19.35;15.25;;;;;;;19.35;60.77;102240.66;6434697;23;20095;-72
2022/05/07 08:35:56;;;;;;;20.77;16.48;;;;;;;19.52;60.80;102237.16;6407199;23;20043;-72
2022/05/07 08:38:27;;;;;;;20.03;15.97;;;;;;;19.75;61.11;102242.00;6433798;23;20447;-72
2022/05/07 08:41:02;;;;;;;20.20;15.87;;;;;;;19.86;60.76;102247.06;6435095;23;20036;-72
2022/05/07 08:43:38;;;;;;;21.27;17.15;;;;;;;19.98;57.71;102248.47;6434779;23;20008;-72
2022/05/07 08:46:16;;;;;;;20.35;15.40;;;;;;;20.06;59.41;102245.84;6431926;23;20040;-72
2022/05/07 08:48:49;;;;;;;20.02;16.23;;;;;;;20.12;57.95;102245.22;6429602;23;20008;-73
2022/05/07 08:51:21;;;;;;;19.15;16.25;;;;;;;20.25;56.38;102249.25;6405442;23;20021;-74
2022/05/07 08:53:53;;;;;;;20.63;16.65;;;;;;;20.33;56.18;102239.47;6431917;23;20005;-72
2022/05/07 08:56:25;;;;;;;22.43;15.90;;;;;;;20.48;55.46;102245.03;6431436;23;20340;-72
2022/05/07 08:58:56;;;;;;;18.00;16.07;;;;;;;20.73;54.04;102237.97;6432426;23;20056;-72
2022/05/07 09:01:27;;;;;;;20.03;15.47;;;;;;;21.03;53.96;102228.53;6433494;23;20008;-72
2022/05/07 09:04:08;;;;;;;21.57;15.63;;;;;;;21.34;53.74;102225.25;6432454;23;20032;-71
2022/05/07 09:06:39;;;;;;;23.00;17.20;;;;;;;21.38;51.87;102231.91;6432342;23;20735;-71
2022/05/07 09:09:11;;;;;;;24.83;17.87;;;;;;;21.61;53.01;102229.38;6433835;23;20001;-73
2022/05/07 09:11:42;;;;;;;22.10;17.80;;;;;;;21.47;50.80;102230.88;6431755;23;20012;-73
2022/05/07 09:14:18;;;;;;;18.93;17.00;;;;;;;21.50;53.18;102214.56;6432956;23;20036;-72
2022/05/07 09:16:50;;;;;;;20.92;16.95;;;;;;;21.57;51.43;102223.56;6432716;23;20009;-72
2022/05/07 09:19:28;;;;;;;25.50;15.93;;;;;;;21.55;51.08;102220.19;6431892;23;20128;-73
2022/05/07 09:22:05;;;;;;;16.98;14.02;;;;;;;21.75;51.18;102227.88;6402351;23;20012;-72
2022/05/07 09:24:38;;;;;;;21.55;16.38;;;;;;;21.80;50.14;102223.66;6405160;23;20035;-74
2022/05/07 09:27:17;;;;;;;20.85;16.25;;;;;;;22.14;49.18;102221.78;6408166;23;20020;-73
2022/05/07 09:29:59;;;;;;;19.50;14.65;;;;;;;22.31;48.90;102223.34;6435564;23;20008;-73
2022/05/07 09:32:35;;;;;;;20.58;15.57;;;;;;;22.34;50.13;102218.50;6432552;23;20013;-72
2022/05/07 09:38:06;;;;;;;21.92;18.50;;;;;;;21.97;49.86;102226.28;6434927;23;20448;-72
2022/05/07 09:40:39;;;;;;;21.57;19.30;;;;;;;22.08;48.01;102231.25;6436043;23;20005;-72
2022/05/07 09:43:12;;;;;;;22.90;18.55;;;;;;;22.15;51.39;102234.09;6435174;23;20060;-72
2022/05/07 09:45:44;;;;;;;23.85;19.63;;;;;;;22.14;47.80;102229.78;6408085;23;20005;-73
2022/05/07 09:48:16;;;;;;;;;;;;;;;22.74;49.79;102232.63;6435387;23;20344;-72
2022/05/07 09:50:47;;;;;;;23.50;19.02;;;;;;;22.32;49.97;102233.88;6425631;23;19967;-72
2022/05/07 09:58:59;;;;;;;23.35;19.60;;;;;;;22.16;47.23;102225.94;6435600;23;20432;-73
2022/05/07 10:01:37;;;;;;;21.07;17.77;;;;;;;22.19;48.00;102225.56;6436751;23;20001;-72
2022/05/07 10:04:31;;;;;;;28.55;19.65;;;;;;;22.30;48.50;102221.69;6432800;23;20504;-73
2022/05/07 10:07:24;;;;;;;21.85;16.23;;;;;;;22.41;47.13;102226.66;6433676;23;20008;-75
2022/05/07 10:10:07;;;;;;;18.90;16.15;;;;;;;22.60;44.93;102225.38;6436734;23;20009;-72
2022/05/07 10:12:43;;;;;;;20.75;15.25;;;;;;;22.67;44.15;102221.00;6436482;23;20345;-72
2022/05/07 10:15:20;;;;;;;18.77;15.07;;;;;;;22.76;44.19;102222.59;6436005;23;20060;-72
2022/05/07 10:17:58;;;;;;;18.75;14.77;;;;;;;23.17;44.89;102218.81;6434225;23;20001;-72
2022/05/07 10:20:43;;;;;;;18.88;15.10;;;;;;;23.22;43.86;102221.78;6435295;23;20004;-72
2022/05/07 10:23:26;;;;;;;17.92;13.43;;;;;;;23.35;43.78;102218.50;6436193;23;20071;-71
2022/05/07 10:25:58;;;;;;;19.02;13.32;;;;;;;23.40;41.30;102218.78;6434931;23;20096;-72
2022/05/07 10:28:43;;;;;;;17.33;12.70;;;;;;;23.48;41.44;102210.69;6434839;23;20432;-73
2022/05/07 10:31:18;;;;;;;18.95;12.00;;;;;;;23.38;42.73;102207.47;6436511;23;20040;-72
2022/05/07 10:33:50;;;;;;;14.88;11.40;;;;;;;23.71;41.71;102206.13;6432842;23;20028;-73
2022/05/07 10:36:32;;;;;;;12.65;10.23;;;;;;;23.67;40.92;102206.69;6432210;23;20009;-72
2022/05/07 10:39:08;;;;;;;14.65;10.10;;;;;;;23.81;41.33;102210.38;6433903;23;20090;-72
2022/05/07 10:41:47;;;;;;;11.75;9.57;;;;;;;23.99;41.00;102208.16;6435292;23;20005;-72
2022/05/07 10:44:33;;;;;;;13.73;10.57;;;;;;;24.12;40.95;102208.31;6435988;23;20004;-72
2022/05/07 10:47:15;;;;;;;12.95;8.88;;;;;;;24.11;38.51;102211.22;6435334;23;20013;-72
2022/05/07 10:49:54;;;;;;;;;;;;;;;24.66;39.70;102207.13;6426278;23;20017;-71
2022/05/07 10:52:32;;;;;;;14.23;8.95;;;;;;;24.08;37.35;102198.19;6425947;23;20401;-71
2022/05/07 10:55:12;;;;;;;16.05;10.02;;;;;;;24.06;37.83;102198.38;6432063;23;20420;-70
2022/05/07 10:57:46;;;;;;;14.48;10.05;;;;;;;24.03;38.35;102204.94;6434247;23;20028;-70
2022/05/07 11:00:21;;;;;;;14.55;10.68;;;;;;;23.80;38.02;102204.22;6434414;23;20001;-71
2022/05/07 11:02:58;;;;;;;13.68;9.90;;;;;;;24.21;41.51;102199.19;6433909;23;20064;-71
2022/05/07 11:05:31;;;;;;;14.68;10.48;;;;;;;24.00;40.52;102199.94;6432191;23;20001;-71
2022/05/07 11:08:03;;;;;;;15.80;9.60;;;;;;;24.17;39.92;102197.06;6433568;23;20001;-71
2022/05/07 11:10:35;;;;;;;14.73;9.93;;;;;;;24.23;37.60;102205.16;6432889;23;20005;-71
2022/05/07 11:13:15;;;;;;;12.23;8.97;;;;;;;24.41;38.54;102203.97;6433446;23;20403;-71
2022/05/07 11:15:50;;;;;;;15.40;10.20;;;;;;;23.98;39.61;102199.31;6434188;23;20097;-71
2022/05/07 11:18:21;;;;;;;12.68;9.43;;;;;;;23.87;40.69;102189.06;6408223;23;20001;-70
2022/05/07 11:21:03;;;;;;;16.70;9.90;;;;;;;23.96;41.86;102198.66;6432362;23;20032;-71
2022/05/07 11:23:45;;;;;;;12.13;9.63;;;;;;;23.77;42.22;102204.56;6432305;23;20005;-71
2022/05/07 11:26:16;;;;;;;12.27;9.02;;;;;;;23.31;42.02;102200.16;6433639;23;20095;-72
2022/05/07 11:28:48;;;;;;;16.80;9.40;;;;;;;23.40;41.27;102206.25;6434187;23;20001;-72
2022/05/07 11:31:31;;;;;;;14.27;9.65;;;;;;;23.58;42.64;102197.06;6432053;23;20049;-72
2022/05/07 11:34:04;;;;;;;;;;;;;;;24.27;42.15;102202.94;6433755;23;20071;-73
2022/05/07 11:36:36;;;;;;;11.73;9.15;;;;;;;24.04;40.19;102195.03;6432305;23;19970;-74
2022/05/07 11:39:08;;;;;;;10.87;8.50;;;;;;;23.98;39.04;102188.59;6433348;23;20001;-73
2022/05/07 11:41:39;;;;;;;11.45;8.55;;;;;;;24.00;39.93;102185.72;6433249;23;20379;-73
2022/05/07 11:47:00;;;;;;;15.07;9.15;;;;;;;24.00;41.00;102185.72;6434770;23;20021;-74
2022/05/07 11:49:33;;;;;;;12.03;8.77;;;;;;;24.03;42.84;102188.88;6434416;23;20326;-73
2022/05/07 11:52:10;;;;;;;13.93;10.52;;;;;;;23.87;42.60;102189.06;6434261;23;20005;-73
2022/05/07 11:54:51;;;;;;;12.55;9.50;;;;;;;23.94;43.38;102183.78;6432981;23;20016;-73
2022/05/07 11:57:31;;;;;;;13.23;9.15;;;;;;;23.82;42.63;102191.47;6431199;23;20009;-73
2022/05/07 12:00:38;;;;;;;12.77;8.73;;;;;;;24.00;42.61;102186.56;6432956;23;20037;-73